sensor_id;sensor_type;location;lat;lon;timestamp;pressure;altitude;pressure_sealevel;temperature;humidity
64019;BME280;66942;52.138;5.216;2023-07-22T00:00:10;101428.0;;;21.42;49.02
64019;BME280;66942;52.138;5.216;2023-07-22T00:03:22;101431.0;;;21.33;49.34
64019;BME280;66942;52.138;5.216;2023-07-22T00:04:58;101425.0;;;21.2;49.62
64019;BME280;66942;52.138;5.216;2023-07-22T00:06:34;101430.0;;;21.23;49.59
64019;BME280;66942;52.138;5.216;2023-07-22T00:08:10;101426.0;;;21.32;49.08
64019;BME280;66942;52.138;5.216;2023-07-22T00:11:22;101427.0;;;21.32;49.03
64019;BME280;66942;52.138;5.216;2023-07-22T00:12:58;101430.0;;;21.25;49.29
64019;BME280;66942;52.138;5.216;2023-07-22T00:14:40;101427.0;;;21.18;49.47
64019;BME280;66942;52.138;5.216;2023-07-22T00:17:52;101423.0;;;21.22;49.12
64019;BME280;66942;52.138;5.216;2023-07-22T00:19:28;101421.0;;;21.24;48.91
64019;BME280;66942;52.138;5.216;2023-07-22T00:21:04;101420.0;;;21.1;49.43
64019;BME280;66942;52.138;5.216;2023-07-22T00:24:16;101416.0;;;21.15;49.17
64019;BME280;66942;52.138;5.216;2023-07-22T00:25:52;101413.0;;;21.18;48.76
64019;BME280;66942;52.138;5.216;2023-07-22T00:27:28;101418.0;;;21.22;48.82
64019;BME280;66942;52.138;5.216;2023-07-22T00:30:41;101421.0;;;21.16;49.1
64019;BME280;66942;52.138;5.216;2023-07-22T00:32:17;101419.0;;;21.16;49.04
64019;BME280;66942;52.138;5.216;2023-07-22T00:33:53;101416.0;;;21.22;49.0
64019;BME280;66942;52.138;5.216;2023-07-22T00:35:29;101413.0;;;21.13;49.03
64019;BME280;66942;52.138;5.216;2023-07-22T00:38:42;101411.0;;;21.11;49.22
64019;BME280;66942;52.138;5.216;2023-07-22T00:40:18;101415.0;;;21.14;49.53
64019;BME280;66942;52.138;5.216;2023-07-22T00:41:54;101416.0;;;21.24;49.2
64019;BME280;66942;52.138;5.216;2023-07-22T00:45:07;101417.0;;;21.27;49.16
64019;BME280;66942;52.138;5.216;2023-07-22T00:46:44;101412.0;;;21.26;49.25
64019;BME280;66942;52.138;5.216;2023-07-22T00:48:20;101407.0;;;21.32;49.14
64019;BME280;66942;52.138;5.216;2023-07-22T00:51:35;101406.0;;;21.18;49.58
64019;BME280;66942;52.138;5.216;2023-07-22T00:53:11;101406.0;;;21.2;49.39
64019;BME280;66942;52.138;5.216;2023-07-22T00:54:48;101405.0;;;21.28;49.22
64019;BME280;66942;52.138;5.216;2023-07-22T00:56:25;101405.0;;;21.3;49.17
64019;BME280;66942;52.138;5.216;2023-07-22T00:59:38;101406.0;;;21.18;49.51
64019;BME280;66942;52.138;5.216;2023-07-22T01:01:15;101402.0;;;21.3;49.26
64019;BME280;66942;52.138;5.216;2023-07-22T01:02:51;101397.0;;;21.38;48.98
64019;BME280;66942;52.138;5.216;2023-07-22T01:06:04;101395.0;;;21.32;48.99
64019;BME280;66942;52.138;5.216;2023-07-22T01:07:41;101395.0;;;21.26;49.1
64019;BME280;66942;52.138;5.216;2023-07-22T01:09:17;101393.0;;;21.2;49.29
64019;BME280;66942;52.138;5.216;2023-07-22T01:12:30;101389.0;;;21.19;49.38
64019;BME280;66942;52.138;5.216;2023-07-22T01:14:06;101391.0;;;21.18;49.37
64019;BME280;66942;52.138;5.216;2023-07-22T01:15:42;101388.0;;;21.24;49.21
64019;BME280;66942;52.138;5.216;2023-07-22T01:17:19;101382.0;;;21.2;49.1
64019;BME280;66942;52.138;5.216;2023-07-22T01:20:34;101382.0;;;21.18;49.24
64019;BME280;66942;52.138;5.216;2023-07-22T01:22:13;101381.0;;;21.33;48.73
64019;BME280;66942;52.138;5.216;2023-07-22T01:23:50;101383.0;;;21.15;49.16
64019;BME280;66942;52.138;5.216;2023-07-22T01:27:04;101384.0;;;21.17;49.16
64019;BME280;66942;52.138;5.216;2023-07-22T01:28:43;101380.0;;;21.09;49.19
64019;BME280;66942;52.138;5.216;2023-07-22T01:30:20;101380.0;;;20.99;49.41
64019;BME280;66942;52.138;5.216;2023-07-22T01:31:56;101382.0;;;21.15;48.92
64019;BME280;66942;52.138;5.216;2023-07-22T01:35:09;101375.0;;;21.02;48.82
64019;BME280;66942;52.138;5.216;2023-07-22T01:36:46;101375.0;;;20.94;48.85
64019;BME280;66942;52.138;5.216;2023-07-22T01:38:22;101374.0;;;21.01;48.68
64019;BME280;66942;52.138;5.216;2023-07-22T01:41:35;101370.0;;;20.89;49.16
64019;BME280;66942;52.138;5.216;2023-07-22T01:43:11;101371.0;;;20.85;49.01
64019;BME280;66942;52.138;5.216;2023-07-22T01:44:47;101373.0;;;20.84;49.15
64019;BME280;66942;52.138;5.216;2023-07-22T01:47:59;101376.0;;;20.91;48.96
64019;BME280;66942;52.138;5.216;2023-07-22T01:49:35;101376.0;;;21.01;48.57
64019;BME280;66942;52.138;5.216;2023-07-22T01:51:11;101373.0;;;20.98;48.68
64019;BME280;66942;52.138;5.216;2023-07-22T01:54:23;101372.0;;;20.95;48.74
64019;BME280;66942;52.138;5.216;2023-07-22T01:56:00;101365.0;;;20.83;49.14
64019;BME280;66942;52.138;5.216;2023-07-22T01:57:36;101369.0;;;20.8;49.15
64019;BME280;66942;52.138;5.216;2023-07-22T01:59:12;101367.0;;;20.85;48.97
64019;BME280;66942;52.138;5.216;2023-07-22T02:02:26;101369.0;;;20.89;48.72
64019;BME280;66942;52.138;5.216;2023-07-22T02:04:02;101366.0;;;20.92;48.62
64019;BME280;66942;52.138;5.216;2023-07-22T02:05:38;101370.0;;;20.9;48.75
64019;BME280;66942;52.138;5.216;2023-07-22T02:08:50;101365.0;;;20.95;48.64
64019;BME280;66942;52.138;5.216;2023-07-22T02:10:27;101371.0;;;20.97;48.68
64019;BME280;66942;52.138;5.216;2023-07-22T02:12:03;101367.0;;;21.07;48.49
64019;BME280;66942;52.138;5.216;2023-07-22T02:15:16;101364.0;;;21.0;48.62
64019;BME280;66942;52.138;5.216;2023-07-22T02:16:52;101363.0;;;20.9;48.86
64019;BME280;66942;52.138;5.216;2023-07-22T02:18:28;101362.0;;;20.92;49.0
64019;BME280;66942;52.138;5.216;2023-07-22T02:20:07;101364.0;;;21.17;48.41
64019;BME280;66942;52.138;5.216;2023-07-22T02:23:20;101358.0;;;21.27;48.09
64019;BME280;66942;52.138;5.216;2023-07-22T02:24:56;101355.0;;;21.31;47.97
64019;BME280;66942;52.138;5.216;2023-07-22T02:26:33;101348.0;;;21.19;48.27
64019;BME280;66942;52.138;5.216;2023-07-22T02:29:45;101347.0;;;21.06;48.76
64019;BME280;66942;52.138;5.216;2023-07-22T02:31:21;101349.0;;;21.06;48.74
64019;BME280;66942;52.138;5.216;2023-07-22T02:32:57;101349.0;;;20.89;49.1
64019;BME280;66942;52.138;5.216;2023-07-22T02:36:09;101348.0;;;20.82;49.3
64019;BME280;66942;52.138;5.216;2023-07-22T02:37:45;101347.0;;;20.84;48.99
64019;BME280;66942;52.138;5.216;2023-07-22T02:39:21;101345.0;;;20.97;48.69
64019;BME280;66942;52.138;5.216;2023-07-22T02:41:01;101340.0;;;20.85;49.11
64019;BME280;66942;52.138;5.216;2023-07-22T02:44:15;101336.0;;;20.96;48.72
64019;BME280;66942;52.138;5.216;2023-07-22T02:45:52;101336.0;;;20.92;48.91
64019;BME280;66942;52.138;5.216;2023-07-22T02:47:29;101334.0;;;20.87;48.97
64019;BME280;66942;52.138;5.216;2023-07-22T02:50:41;101337.0;;;20.82;48.94
64019;BME280;66942;52.138;5.216;2023-07-22T02:52:17;101331.0;;;21.08;48.29
64019;BME280;66942;52.138;5.216;2023-07-22T02:53:53;101334.0;;;21.15;48.1
64019;BME280;66942;52.138;5.216;2023-07-22T02:57:06;101336.0;;;20.97;48.6
64019;BME280;66942;52.138;5.216;2023-07-22T02:58:42;101338.0;;;20.92;48.72
64019;BME280;66942;52.138;5.216;2023-07-22T03:00:19;101339.0;;;20.92;48.67
64019;BME280;66942;52.138;5.216;2023-07-22T03:01:56;101338.0;;;20.94;48.62
64019;BME280;66942;52.138;5.216;2023-07-22T03:05:09;101343.0;;;20.99;48.47
64019;BME280;66942;52.138;5.216;2023-07-22T03:06:46;101342.0;;;21.02;48.41
64019;BME280;66942;52.138;5.216;2023-07-22T03:08:22;101342.0;;;20.92;48.66
64019;BME280;66942;52.138;5.216;2023-07-22T03:11:35;101347.0;;;20.92;48.62
64019;BME280;66942;52.138;5.216;2023-07-22T03:13:11;101343.0;;;20.94;48.59
64019;BME280;66942;52.138;5.216;2023-07-22T03:14:47;101345.0;;;20.96;48.62
64019;BME280;66942;52.138;5.216;2023-07-22T03:17:59;101345.0;;;20.94;48.63
64019;BME280;66942;52.138;5.216;2023-07-22T03:19:35;101346.0;;;21.12;48.26
64019;BME280;66942;52.138;5.216;2023-07-22T03:21:11;101353.0;;;21.04;48.51
64019;BME280;66942;52.138;5.216;2023-07-22T03:22:47;101350.0;;;21.22;48.06
64019;BME280;66942;52.138;5.216;2023-07-22T03:26:01;101351.0;;;21.07;48.42
64019;BME280;66942;52.138;5.216;2023-07-22T03:27:37;101348.0;;;20.93;49.03
64019;BME280;66942;52.138;5.216;2023-07-22T03:29:14;101350.0;;;21.18;48.32
64019;BME280;66942;52.138;5.216;2023-07-22T03:32:26;101344.0;;;21.16;48.42
64019;BME280;66942;52.138;5.216;2023-07-22T03:34:02;101350.0;;;21.2;48.29
64019;BME280;66942;52.138;5.216;2023-07-22T03:35:38;101346.0;;;21.19;48.4
64019;BME280;66942;52.138;5.216;2023-07-22T03:38:50;101355.0;;;21.05;48.65
64019;BME280;66942;52.138;5.216;2023-07-22T03:40:27;101350.0;;;21.25;48.22
64019;BME280;66942;52.138;5.216;2023-07-22T03:42:03;101345.0;;;21.25;48.22
64019;BME280;66942;52.138;5.216;2023-07-22T03:43:40;101351.0;;;21.12;48.57
64019;BME280;66942;52.138;5.216;2023-07-22T03:46:53;101352.0;;;21.21;48.39
64019;BME280;66942;52.138;5.216;2023-07-22T03:48:29;101352.0;;;21.38;47.93
64019;BME280;66942;52.138;5.216;2023-07-22T03:50:06;101351.0;;;21.4;47.85
64019;BME280;66942;52.138;5.216;2023-07-22T03:53:18;101352.0;;;21.28;48.19
64019;BME280;66942;52.138;5.216;2023-07-22T03:54:54;101352.0;;;21.24;48.44
64019;BME280;66942;52.138;5.216;2023-07-22T03:56:31;101353.0;;;21.14;48.81
64019;BME280;66942;52.138;5.216;2023-07-22T03:59:43;101352.0;;;21.08;49.04
64019;BME280;66942;52.138;5.216;2023-07-22T04:01:19;101348.0;;;21.14;48.86
64019;BME280;66942;52.138;5.216;2023-07-22T04:02:55;101355.0;;;21.02;49.21
64019;BME280;66942;52.138;5.216;2023-07-22T04:06:08;101356.0;;;21.22;48.8
64019;BME280;66942;52.138;5.216;2023-07-22T04:07:44;101352.0;;;21.15;48.86
64019;BME280;66942;52.138;5.216;2023-07-22T04:09:21;101356.0;;;21.2;48.84
64019;BME280;66942;52.138;5.216;2023-07-22T04:10:57;101352.0;;;21.41;48.41
64019;BME280;66942;52.138;5.216;2023-07-22T04:14:10;101355.0;;;21.46;48.31
64019;BME280;66942;52.138;5.216;2023-07-22T04:15:46;101360.0;;;21.3;48.8
64019;BME280;66942;52.138;5.216;2023-07-22T04:17:22;101359.0;;;21.25;49.04
64019;BME280;66942;52.138;5.216;2023-07-22T04:20:35;101358.0;;;21.25;49.2
64019;BME280;66942;52.138;5.216;2023-07-22T04:22:11;101359.0;;;21.4;49.0
64019;BME280;66942;52.138;5.216;2023-07-22T04:23:47;101361.0;;;21.55;48.7
64019;BME280;66942;52.138;5.216;2023-07-22T04:27:00;101355.0;;;21.53;48.79
64019;BME280;66942;52.138;5.216;2023-07-22T04:28:37;101355.0;;;21.54;48.93
64019;BME280;66942;52.138;5.216;2023-07-22T04:30:13;101352.0;;;21.61;48.82
64019;BME280;66942;52.138;5.216;2023-07-22T04:31:49;101352.0;;;21.67;48.69
64019;BME280;66942;52.138;5.216;2023-07-22T04:35:03;101353.0;;;21.57;49.09
64019;BME280;66942;52.138;5.216;2023-07-22T04:36:40;101352.0;;;21.74;48.71
64019;BME280;66942;52.138;5.216;2023-07-22T04:38:16;101353.0;;;21.94;48.36
64019;BME280;66942;52.138;5.216;2023-07-22T04:41:28;101352.0;;;21.92;48.51
64019;BME280;66942;52.138;5.216;2023-07-22T04:43:04;101352.0;;;21.91;48.67
64019;BME280;66942;52.138;5.216;2023-07-22T04:44:40;101349.0;;;21.95;48.66
64019;BME280;66942;52.138;5.216;2023-07-22T04:47:52;101355.0;;;22.09;48.46
64019;BME280;66942;52.138;5.216;2023-07-22T04:49:28;101351.0;;;22.19;48.32
64019;BME280;66942;52.138;5.216;2023-07-22T04:51:05;101353.0;;;22.18;48.5
64019;BME280;66942;52.138;5.216;2023-07-22T04:54:19;101350.0;;;22.28;48.4
64019;BME280;66942;52.138;5.216;2023-07-22T04:55:55;101346.0;;;22.41;48.17
64019;BME280;66942;52.138;5.216;2023-07-22T04:57:31;101343.0;;;22.32;48.69
64019;BME280;66942;52.138;5.216;2023-07-22T04:59:07;101346.0;;;22.42;48.55
64019;BME280;66942;52.138;5.216;2023-07-22T05:02:19;101344.0;;;22.57;48.33
64019;BME280;66942;52.138;5.216;2023-07-22T05:03:55;101345.0;;;22.64;48.22
64019;BME280;66942;52.138;5.216;2023-07-22T05:05:32;101348.0;;;22.65;48.34
64019;BME280;66942;52.138;5.216;2023-07-22T05:08:44;101338.0;;;22.62;48.49
64019;BME280;66942;52.138;5.216;2023-07-22T05:10:20;101344.0;;;22.68;48.44
64019;BME280;66942;52.138;5.216;2023-07-22T05:11:56;101345.0;;;22.84;48.15
64019;BME280;66942;52.138;5.216;2023-07-22T05:16:46;101342.0;;;22.96;48.0
64019;BME280;66942;52.138;5.216;2023-07-22T05:18:22;101342.0;;;22.97;48.22
64019;BME280;66942;52.138;5.216;2023-07-22T05:19:58;101343.0;;;23.01;48.23
64019;BME280;66942;52.138;5.216;2023-07-22T05:23:11;101342.0;;;23.13;48.05
64019;BME280;66942;52.138;5.216;2023-07-22T05:24:47;101341.0;;;23.32;47.7
64019;BME280;66942;52.138;5.216;2023-07-22T05:26:23;101340.0;;;23.32;47.85
64019;BME280;66942;52.138;5.216;2023-07-22T05:29:35;101338.0;;;23.29;48.04
64019;BME280;66942;52.138;5.216;2023-07-22T05:31:11;101339.0;;;23.44;47.76
64019;BME280;66942;52.138;5.216;2023-07-22T05:32:47;101343.0;;;23.34;48.18
64019;BME280;66942;52.138;5.216;2023-07-22T05:36:03;101346.0;;;23.44;48.1
64019;BME280;66942;52.138;5.216;2023-07-22T05:37:40;101342.0;;;23.64;47.71
64019;BME280;66942;52.138;5.216;2023-07-22T05:39:16;101341.0;;;23.63;48.02
64019;BME280;66942;52.138;5.216;2023-07-22T05:40:52;101337.0;;;23.55;48.27
64019;BME280;66942;52.138;5.216;2023-07-22T05:44:04;101342.0;;;23.58;48.35
64019;BME280;66942;52.138;5.216;2023-07-22T05:45:40;101344.0;;;23.74;48.04
64019;BME280;66942;52.138;5.216;2023-07-22T05:47:16;101345.0;;;23.67;48.33
64019;BME280;66942;52.138;5.216;2023-07-22T05:50:29;101340.0;;;23.62;48.6
64019;BME280;66942;52.138;5.216;2023-07-22T05:52:05;101348.0;;;23.78;48.44
64019;BME280;66942;52.138;5.216;2023-07-22T05:53:42;101347.0;;;23.73;48.73
64019;BME280;66942;52.138;5.216;2023-07-22T05:56:54;101349.0;;;23.88;48.51
64019;BME280;66942;52.138;5.216;2023-07-22T05:58:30;101349.0;;;23.95;48.56
64019;BME280;66942;52.138;5.216;2023-07-22T06:00:07;101350.0;;;24.13;48.21
64019;BME280;66942;52.138;5.216;2023-07-22T06:03:20;101346.0;;;24.23;48.22
64019;BME280;66942;52.138;5.216;2023-07-22T06:04:56;101344.0;;;24.31;48.01
64019;BME280;66942;52.138;5.216;2023-07-22T06:06:32;101347.0;;;24.48;47.59
64019;BME280;66942;52.138;5.216;2023-07-22T06:08:08;101346.0;;;24.44;47.92
64019;BME280;66942;52.138;5.216;2023-07-22T06:11:20;101341.0;;;24.7;47.26
64019;BME280;66942;52.138;5.216;2023-07-22T06:12:56;101339.0;;;24.71;47.33
64019;BME280;66942;52.138;5.216;2023-07-22T06:14:32;101337.0;;;24.69;47.43
64019;BME280;66942;52.138;5.216;2023-07-22T06:17:45;101339.0;;;24.82;47.32
64019;BME280;66942;52.138;5.216;2023-07-22T06:19:21;101337.0;;;24.94;47.02
64019;BME280;66942;52.138;5.216;2023-07-22T06:20:57;101333.0;;;25.04;46.96
64019;BME280;66942;52.138;5.216;2023-07-22T06:24:09;101337.0;;;25.06;47.23
64019;BME280;66942;52.138;5.216;2023-07-22T06:25:45;101335.0;;;25.11;47.23
64019;BME280;66942;52.138;5.216;2023-07-22T06:27:21;101333.0;;;25.18;47.24
64019;BME280;66942;52.138;5.216;2023-07-22T06:28:58;101336.0;;;25.3;46.93
64019;BME280;66942;52.138;5.216;2023-07-22T06:32:11;101335.0;;;25.57;46.45
64019;BME280;66942;52.138;5.216;2023-07-22T06:33:48;101330.0;;;25.69;46.25
64019;BME280;66942;52.138;5.216;2023-07-22T06:35:24;101334.0;;;25.36;46.72
64019;BME280;66942;52.138;5.216;2023-07-22T06:38:36;101330.0;;;25.56;46.35
64019;BME280;66942;52.138;5.216;2023-07-22T06:40:12;101330.0;;;25.61;46.47
64019;BME280;66942;52.138;5.216;2023-07-22T06:41:48;101324.0;;;25.59;46.68
64019;BME280;66942;52.138;5.216;2023-07-22T06:45:00;101323.0;;;25.62;46.63
64019;BME280;66942;52.138;5.216;2023-07-22T06:46:36;101323.0;;;25.89;46.19
64019;BME280;66942;52.138;5.216;2023-07-22T06:48:13;101321.0;;;26.09;46.16
64019;BME280;66942;52.138;5.216;2023-07-22T06:51:25;101321.0;;;26.14;46.16
64019;BME280;66942;52.138;5.216;2023-07-22T06:53:01;101321.0;;;26.24;45.79
64019;BME280;66942;52.138;5.216;2023-07-22T06:54:37;101326.0;;;26.33;45.59
64019;BME280;66942;52.138;5.216;2023-07-22T06:56:13;101323.0;;;26.38;45.1
64019;BME280;66942;52.138;5.216;2023-07-22T06:59:26;101321.0;;;26.44;44.86
64019;BME280;66942;52.138;5.216;2023-07-22T07:01:02;101323.0;;;26.46;44.87
64019;BME280;66942;52.138;5.216;2023-07-22T07:02:38;101325.0;;;26.44;44.82
64019;BME280;66942;52.138;5.216;2023-07-22T07:05:52;101318.0;;;26.62;44.22
64019;BME280;66942;52.138;5.216;2023-07-22T07:07:28;101317.0;;;26.7;44.19
64019;BME280;66942;52.138;5.216;2023-07-22T07:09:04;101314.0;;;26.57;44.86
64019;BME280;66942;52.138;5.216;2023-07-22T07:12:16;101312.0;;;26.71;44.35
64019;BME280;66942;52.138;5.216;2023-07-22T07:13:52;101322.0;;;26.77;44.13
64019;BME280;66942;52.138;5.216;2023-07-22T07:15:29;101321.0;;;26.8;44.27
64019;BME280;66942;52.138;5.216;2023-07-22T07:17:05;101321.0;;;26.89;44.01
64019;BME280;66942;52.138;5.216;2023-07-22T07:20:17;101321.0;;;26.86;44.17
64019;BME280;66942;52.138;5.216;2023-07-22T07:21:53;101312.0;;;26.98;44.15
64019;BME280;66942;52.138;5.216;2023-07-22T07:23:29;101316.0;;;26.95;44.36
64019;BME280;66942;52.138;5.216;2023-07-22T07:26:42;101319.0;;;27.05;43.94
64019;BME280;66942;52.138;5.216;2023-07-22T07:28:18;101321.0;;;27.04;43.96
64019;BME280;66942;52.138;5.216;2023-07-22T07:29:54;101318.0;;;27.25;43.59
64019;BME280;66942;52.138;5.216;2023-07-22T07:33:07;101321.0;;;27.34;43.37
64019;BME280;66942;52.138;5.216;2023-07-22T07:34:43;101319.0;;;27.43;42.9
64019;BME280;66942;52.138;5.216;2023-07-22T07:36:19;101314.0;;;27.34;43.3
64019;BME280;66942;52.138;5.216;2023-07-22T07:39:31;101316.0;;;27.39;43.42
64019;BME280;66942;52.138;5.216;2023-07-22T07:41:07;101318.0;;;27.35;43.45
64019;BME280;66942;52.138;5.216;2023-07-22T07:42:44;101317.0;;;27.51;42.59
64019;BME280;66942;52.138;5.216;2023-07-22T07:44:20;101317.0;;;27.62;42.5
64019;BME280;66942;52.138;5.216;2023-07-22T07:47:52;101316.0;;;27.6;42.29
64019;BME280;66942;52.138;5.216;2023-07-22T07:49:28;101314.0;;;27.57;42.27
64019;BME280;66942;52.138;5.216;2023-07-22T07:51:04;101312.0;;;27.72;42.16
64019;BME280;66942;52.138;5.216;2023-07-22T07:52:40;101306.0;;;27.63;42.36
64019;BME280;66942;52.138;5.216;2023-07-22T07:55:53;101308.0;;;27.84;41.87
64019;BME280;66942;52.138;5.216;2023-07-22T07:57:29;101307.0;;;27.96;41.66
64019;BME280;66942;52.138;5.216;2023-07-22T07:59:05;101308.0;;;28.03;40.71
64019;BME280;66942;52.138;5.216;2023-07-22T08:02:17;101308.0;;;28.03;41.42
64019;BME280;66942;52.138;5.216;2023-07-22T08:03:53;101312.0;;;28.13;41.14
64019;BME280;66942;52.138;5.216;2023-07-22T08:05:29;101306.0;;;28.15;41.12
64019;BME280;66942;52.138;5.216;2023-07-22T08:08:42;101307.0;;;27.73;41.53
64019;BME280;66942;52.138;5.216;2023-07-22T08:10:18;101295.0;;;28.11;40.21
64019;BME280;66942;52.138;5.216;2023-07-22T08:11:55;101301.0;;;27.95;40.17
64019;BME280;66942;52.138;5.216;2023-07-22T08:15:08;101300.0;;;28.43;39.53
64019;BME280;66942;52.138;5.216;2023-07-22T08:16:45;101302.0;;;28.65;39.1
64019;BME280;66942;52.138;5.216;2023-07-22T08:18:21;101302.0;;;28.76;38.92
64019;BME280;66942;52.138;5.216;2023-07-22T08:19:57;101305.0;;;28.98;39.04
64019;BME280;66942;52.138;5.216;2023-07-22T08:23:09;101306.0;;;29.0;38.72
64019;BME280;66942;52.138;5.216;2023-07-22T08:24:45;101305.0;;;28.57;39.21
64019;BME280;66942;52.138;5.216;2023-07-22T08:26:22;101306.0;;;28.99;38.71
64019;BME280;66942;52.138;5.216;2023-07-22T08:29:34;101305.0;;;28.55;39.03
64019;BME280;66942;52.138;5.216;2023-07-22T08:31:10;101303.0;;;29.16;37.87
64019;BME280;66942;52.138;5.216;2023-07-22T08:32:46;101308.0;;;29.04;38.21
64019;BME280;66942;52.138;5.216;2023-07-22T08:35:58;101305.0;;;29.47;38.03
64019;BME280;66942;52.138;5.216;2023-07-22T08:37:34;101306.0;;;29.63;36.96
64019;BME280;66942;52.138;5.216;2023-07-22T08:39:10;101299.0;;;28.7;38.08
64019;BME280;66942;52.138;5.216;2023-07-22T08:40:49;101300.0;;;29.05;37.65
64019;BME280;66942;52.138;5.216;2023-07-22T08:44:07;101301.0;;;29.13;37.1
64019;BME280;66942;52.138;5.216;2023-07-22T08:45:47;101296.0;;;29.26;37.33
64019;BME280;66942;52.138;5.216;2023-07-22T08:47:28;101293.0;;;29.08;37.26
64019;BME280;66942;52.138;5.216;2023-07-22T08:50:45;101295.0;;;29.3;36.5
64019;BME280;66942;52.138;5.216;2023-07-22T08:52:25;101295.0;;;29.61;36.21
64019;BME280;66942;52.138;5.216;2023-07-22T08:54:02;101298.0;;;29.44;36.29
64019;BME280;66942;52.138;5.216;2023-07-22T08:55:39;101291.0;;;28.91;36.89
64019;BME280;66942;52.138;5.216;2023-07-22T08:58:53;101292.0;;;29.1;37.12
64019;BME280;66942;52.138;5.216;2023-07-22T09:00:30;101291.0;;;29.19;37.06
64019;BME280;66942;52.138;5.216;2023-07-22T09:02:10;101290.0;;;29.55;37.18
64019;BME280;66942;52.138;5.216;2023-07-22T09:03:48;101293.0;;;29.73;36.46
64019;BME280;66942;52.138;5.216;2023-07-22T09:07:03;101286.0;;;29.73;37.03
64019;BME280;66942;52.138;5.216;2023-07-22T09:08:40;101285.0;;;29.05;36.85
64019;BME280;66942;52.138;5.216;2023-07-22T09:10:16;101284.0;;;29.76;35.79
64019;BME280;66942;52.138;5.216;2023-07-22T09:13:30;101297.0;;;29.45;35.61
64019;BME280;66942;52.138;5.216;2023-07-22T09:15:09;101293.0;;;29.63;35.4
64019;BME280;66942;52.138;5.216;2023-07-22T09:16:47;101296.0;;;29.65;35.29
64019;BME280;66942;52.138;5.216;2023-07-22T09:18:23;101293.0;;;29.02;35.36
64019;BME280;66942;52.138;5.216;2023-07-22T09:21:36;101292.0;;;29.63;34.4
64019;BME280;66942;52.138;5.216;2023-07-22T09:23:13;101290.0;;;29.67;34.56
64019;BME280;66942;52.138;5.216;2023-07-22T09:24:50;101292.0;;;29.84;34.37
64019;BME280;66942;52.138;5.216;2023-07-22T09:28:02;101287.0;;;29.83;34.86
64019;BME280;66942;52.138;5.216;2023-07-22T09:29:39;101289.0;;;29.73;35.06
64019;BME280;66942;52.138;5.216;2023-07-22T09:31:15;101291.0;;;29.7;34.89
64019;BME280;66942;52.138;5.216;2023-07-22T09:34:29;101281.0;;;28.27;36.61
64019;BME280;66942;52.138;5.216;2023-07-22T09:36:06;101287.0;;;28.94;35.72
64019;BME280;66942;52.138;5.216;2023-07-22T09:37:42;101278.0;;;28.98;35.39
64019;BME280;66942;52.138;5.216;2023-07-22T09:39:19;101286.0;;;29.22;35.15
64019;BME280;66942;52.138;5.216;2023-07-22T09:42:31;101290.0;;;29.38;35.06
64019;BME280;66942;52.138;5.216;2023-07-22T09:44:09;101291.0;;;29.41;35.64
64019;BME280;66942;52.138;5.216;2023-07-22T09:45:47;101285.0;;;29.05;35.94
64019;BME280;66942;52.138;5.216;2023-07-22T09:49:02;101286.0;;;28.62;36.0
64019;BME280;66942;52.138;5.216;2023-07-22T09:50:39;101283.0;;;28.92;35.94
64019;BME280;66942;52.138;5.216;2023-07-22T09:52:15;101282.0;;;29.02;36.46
64019;BME280;66942;52.138;5.216;2023-07-22T09:55:36;101278.0;;;29.06;36.58
64019;BME280;66942;52.138;5.216;2023-07-22T09:57:12;101283.0;;;29.09;36.1
64019;BME280;66942;52.138;5.216;2023-07-22T09:58:50;101275.0;;;28.82;36.62
64019;BME280;66942;52.138;5.216;2023-07-22T10:00:30;101285.0;;;29.01;36.03
64019;BME280;66942;52.138;5.216;2023-07-22T10:03:49;101276.0;;;28.73;35.71
64019;BME280;66942;52.138;5.216;2023-07-22T10:05:28;101276.0;;;28.51;35.22
64019;BME280;66942;52.138;5.216;2023-07-22T10:07:09;101272.0;;;28.77;34.99
64019;BME280;66942;52.138;5.216;2023-07-22T10:08:46;101266.0;;;28.64;35.49
64019;BME280;66942;52.138;5.216;2023-07-22T10:12:07;101267.0;;;28.56;35.53
64019;BME280;66942;52.138;5.216;2023-07-22T10:13:43;101272.0;;;28.76;35.37
64019;BME280;66942;52.138;5.216;2023-07-22T10:15:20;101273.0;;;29.19;34.5
64019;BME280;66942;52.138;5.216;2023-07-22T10:18:33;101281.0;;;29.25;34.42
64019;BME280;66942;52.138;5.216;2023-07-22T10:20:10;101284.0;;;29.44;34.82
64019;BME280;66942;52.138;5.216;2023-07-22T10:21:48;101277.0;;;29.55;34.6
64019;BME280;66942;52.138;5.216;2023-07-22T10:23:26;101278.0;;;29.5;34.49
64019;BME280;66942;52.138;5.216;2023-07-22T10:26:41;101280.0;;;29.36;34.03
64019;BME280;66942;52.138;5.216;2023-07-22T10:28:18;101276.0;;;29.07;34.03
64019;BME280;66942;52.138;5.216;2023-07-22T10:29:55;101276.0;;;29.19;33.93
64019;BME280;66942;52.138;5.216;2023-07-22T10:33:07;101282.0;;;29.22;33.71
64019;BME280;66942;52.138;5.216;2023-07-22T10:34:44;101283.0;;;29.21;33.71
64019;BME280;66942;52.138;5.216;2023-07-22T10:36:20;101285.0;;;29.21;34.17
64019;BME280;66942;52.138;5.216;2023-07-22T10:38:06;101285.0;;;29.14;34.12
64019;BME280;66942;52.138;5.216;2023-07-22T10:41:19;101282.0;;;28.92;34.35
64019;BME280;66942;52.138;5.216;2023-07-22T10:43:00;101280.0;;;28.99;33.99
64019;BME280;66942;52.138;5.216;2023-07-22T10:44:39;101283.0;;;28.66;34.14
64019;BME280;66942;52.138;5.216;2023-07-22T10:48:00;101288.0;;;28.98;33.92
64019;BME280;66942;52.138;5.216;2023-07-22T10:49:43;101287.0;;;28.57;34.44
64019;BME280;66942;52.138;5.216;2023-07-22T10:51:35;101284.0;;;28.81;34.26
64019;BME280;66942;52.138;5.216;2023-07-22T10:53:13;101285.0;;;28.07;35.17
64019;BME280;66942;52.138;5.216;2023-07-22T10:54:55;101282.0;;;28.44;34.58
64019;BME280;66942;52.138;5.216;2023-07-22T10:58:07;101283.0;;;28.47;34.28
64019;BME280;66942;52.138;5.216;2023-07-22T10:59:49;101286.0;;;28.31;34.42
64019;BME280;66942;52.138;5.216;2023-07-22T11:01:43;101284.0;;;28.48;34.24
64019;BME280;66942;52.138;5.216;2023-07-22T11:03:20;101285.0;;;28.43;34.56
64019;BME280;66942;52.138;5.216;2023-07-22T11:06:33;101299.0;;;28.43;34.78
64019;BME280;66942;52.138;5.216;2023-07-22T11:08:10;101298.0;;;28.13;36.21